Terminal Aerodrome Forecast
Issued by NWS

Home | Current Version | Previous Version | Text Only | Print | Product List | Glossary On
Versions: 1 2 3 4 5 6 7 8 9 10 11 12 13 14
000
FTUS43 KTOP 162300
TAFMHK
TAF
KMHK 162325Z 1700/1724 15004KT P6SM SCT050 BKN120
     FM170900 18004KT P6SM VCTS BKN015CB
     FM171100 18004KT 6SM BR BKN011
     FM171200 15004KT 3SM BR BKN008
     FM171500 16005KT 6SM BR BKN012
     FM171700 19005KT P6SM SCT015 BKN250=

USA.gov is the U.S. government's official web portal to all federal, state and local government web resources and services.